sensor_id;sensor_type;location;lat;lon;timestamp;pressure;altitude;pressure_sealevel;temperature;humidity
36630;BME280;36256;42.154;23.002;2024-02-16T00:01:50;97756.53;;;5.19;71.36
36630;BME280;36256;42.154;23.002;2024-02-16T00:04:17;97765.75;;;5.06;71.45
36630;BME280;36256;42.154;23.002;2024-02-16T00:06:43;97772.16;;;4.99;72.05
36630;BME280;36256;42.154;23.002;2024-02-16T00:09:10;97765.41;;;4.97;72.05
36630;BME280;36256;42.154;23.002;2024-02-16T00:11:37;97762.28;;;4.84;72.92
36630;BME280;36256;42.154;23.002;2024-02-16T00:14:03;97769.06;;;4.83;73.30
36630;BME280;36256;42.154;23.002;2024-02-16T00:16:30;97776.25;;;4.73;73.53
36630;BME280;36256;42.154;23.002;2024-02-16T00:18:57;97769.09;;;4.76;73.57
36630;BME280;36256;42.154;23.002;2024-02-16T00:21:24;97778.69;;;4.64;73.82
36630;BME280;36256;42.154;23.002;2024-02-16T00:23:50;97775.44;;;4.76;73.53
36630;BME280;36256;42.154;23.002;2024-02-16T00:26:17;97776.28;;;4.70;74.00
36630;BME280;36256;42.154;23.002;2024-02-16T00:28:44;97777.09;;;4.63;74.66
36630;BME280;36256;42.154;23.002;2024-02-16T00:31:10;97796.13;;;4.68;74.41
36630;BME280;36256;42.154;23.002;2024-02-16T00:33:37;97780.25;;;4.72;73.91
36630;BME280;36256;42.154;23.002;2024-02-16T00:36:04;97785.03;;;4.65;74.34
36630;BME280;36256;42.154;23.002;2024-02-16T00:38:30;97768.38;;;4.58;74.94
36630;BME280;36256;42.154;23.002;2024-02-16T00:40:57;97787.44;;;4.59;74.87
36630;BME280;36256;42.154;23.002;2024-02-16T00:43:23;97785.81;;;4.65;73.96
36630;BME280;36256;42.154;23.002;2024-02-16T00:45:50;97787.41;;;4.70;73.64
36630;BME280;36256;42.154;23.002;2024-02-16T00:48:16;97780.25;;;4.65;73.97
36630;BME280;36256;42.154;23.002;2024-02-16T00:50:44;97799.72;;;4.65;74.43
36630;BME280;36256;42.154;23.002;2024-02-16T00:53:10;97796.94;;;4.65;74.06
36630;BME280;36256;42.154;23.002;2024-02-16T00:55:37;97805.72;;;4.53;74.58
36630;BME280;36256;42.154;23.002;2024-02-16T00:58:04;97798.56;;;4.52;74.34
36630;BME280;36256;42.154;23.002;2024-02-16T01:00:31;97795.84;;;4.38;74.71
36630;BME280;36256;42.154;23.002;2024-02-16T01:02:58;97798.63;;;4.38;75.01
36630;BME280;36256;42.154;23.002;2024-02-16T01:05:25;97802.56;;;4.44;74.92
36630;BME280;36256;42.154;23.002;2024-02-16T01:07:51;97802.56;;;4.51;74.90
36630;BME280;36256;42.154;23.002;2024-02-16T01:10:18;97793.00;;;4.56;74.25
36630;BME280;36256;42.154;23.002;2024-02-16T01:12:45;97791.00;;;4.56;73.74
36630;BME280;36256;42.154;23.002;2024-02-16T01:15:12;97789.81;;;4.61;73.80
36630;BME280;36256;42.154;23.002;2024-02-16T01:17:38;97793.84;;;4.49;74.28
36630;BME280;36256;42.154;23.002;2024-02-16T01:20:06;97795.78;;;4.52;74.70
36630;BME280;36256;42.154;23.002;2024-02-16T01:22:37;97789.06;;;4.46;74.70
36630;BME280;36256;42.154;23.002;2024-02-16T01:25:04;97786.69;;;4.52;74.49
36630;BME280;36256;42.154;23.002;2024-02-16T01:27:30;97793.88;;;4.39;75.24
36630;BME280;36256;42.154;23.002;2024-02-16T01:29:58;97785.94;;;4.34;75.71
36630;BME280;36256;42.154;23.002;2024-02-16T01:32:25;97790.69;;;4.40;75.22
36630;BME280;36256;42.154;23.002;2024-02-16T01:34:52;97782.78;;;4.28;75.41
36630;BME280;36256;42.154;23.002;2024-02-16T01:37:18;97787.94;;;4.26;76.34
36630;BME280;36256;42.154;23.002;2024-02-16T01:39:45;97785.16;;;4.23;76.06
36630;BME280;36256;42.154;23.002;2024-02-16T01:42:12;97781.19;;;4.27;75.75
36630;BME280;36256;42.154;23.002;2024-02-16T01:44:38;97781.97;;;4.31;76.01
36630;BME280;36256;42.154;23.002;2024-02-16T01:47:05;97784.34;;;4.29;76.14
36630;BME280;36256;42.154;23.002;2024-02-16T01:49:32;97791.47;;;4.34;75.38
36630;BME280;36256;42.154;23.002;2024-02-16T01:51:59;97787.56;;;4.24;75.71
36630;BME280;36256;42.154;23.002;2024-02-16T01:54:26;97781.59;;;4.22;76.21
36630;BME280;36256;42.154;23.002;2024-02-16T01:56:53;97773.28;;;4.15;75.98
36630;BME280;36256;42.154;23.002;2024-02-16T01:59:20;97781.25;;;4.10;76.82
36630;BME280;36256;42.154;23.002;2024-02-16T02:01:47;97780.84;;;3.97;77.42
36630;BME280;36256;42.154;23.002;2024-02-16T02:04:13;97777.28;;;4.00;77.58
36630;BME280;36256;42.154;23.002;2024-02-16T02:06:40;97767.78;;;3.94;77.71
36630;BME280;36256;42.154;23.002;2024-02-16T02:09:07;97787.59;;;3.89;77.88
36630;BME280;36256;42.154;23.002;2024-02-16T02:11:35;97785.22;;;3.91;77.55
36630;BME280;36256;42.154;23.002;2024-02-16T02:14:02;97782.03;;;3.96;77.78
36630;BME280;36256;42.154;23.002;2024-02-16T02:16:28;97778.09;;;3.90;77.93
36630;BME280;36256;42.154;23.002;2024-02-16T02:19:03;97778.88;;;3.87;77.94
36630;BME280;36256;42.154;23.002;2024-02-16T02:21:30;97783.66;;;3.90;78.09
36630;BME280;36256;42.154;23.002;2024-02-16T02:23:57;97783.66;;;3.90;77.58
36630;BME280;36256;42.154;23.002;2024-02-16T02:26:23;97785.59;;;4.00;77.58
36630;BME280;36256;42.154;23.002;2024-02-16T02:28:50;97793.19;;;3.82;78.29
36630;BME280;36256;42.154;23.002;2024-02-16T02:31:16;97797.94;;;3.78;79.07
36630;BME280;36256;42.154;23.002;2024-02-16T02:33:43;97791.16;;;3.89;78.41
36630;BME280;36256;42.154;23.002;2024-02-16T02:36:10;97804.25;;;3.78;78.76
36630;BME280;36256;42.154;23.002;2024-02-16T02:38:36;97800.31;;;3.79;78.99
36630;BME280;36256;42.154;23.002;2024-02-16T02:41:03;97793.56;;;3.66;80.16
36630;BME280;36256;42.154;23.002;2024-02-16T02:43:33;97808.25;;;3.67;80.00
36630;BME280;36256;42.154;23.002;2024-02-16T02:46:00;97809.03;;;3.67;80.32
36630;BME280;36256;42.154;23.002;2024-02-16T02:48:27;97803.50;;;3.67;80.79
36630;BME280;36256;42.154;23.002;2024-02-16T02:50:53;97806.66;;;3.73;80.12
36630;BME280;36256;42.154;23.002;2024-02-16T02:53:20;97809.44;;;3.80;80.54
36630;BME280;36256;42.154;23.002;2024-02-16T02:55:48;97805.84;;;3.90;79.85
36630;BME280;36256;42.154;23.002;2024-02-16T02:58:14;97813.38;;;4.00;79.72
36630;BME280;36256;42.154;23.002;2024-02-16T03:00:44;97816.94;;;4.04;79.19
36630;BME280;36256;42.154;23.002;2024-02-16T03:03:11;97816.13;;;4.04;79.56
36630;BME280;36256;42.154;23.002;2024-02-16T03:05:39;97818.50;;;4.12;78.75
36630;BME280;36256;42.154;23.002;2024-02-16T03:08:06;97819.69;;;4.15;78.28
36630;BME280;36256;42.154;23.002;2024-02-16T03:10:32;97821.28;;;4.19;78.28
36630;BME280;36256;42.154;23.002;2024-02-16T03:13:01;97821.28;;;4.19;78.33
36630;BME280;36256;42.154;23.002;2024-02-16T03:15:29;97816.91;;;4.18;77.63
36630;BME280;36256;42.154;23.002;2024-02-16T03:17:56;97823.66;;;4.17;77.29
36630;BME280;36256;42.154;23.002;2024-02-16T03:20:22;97821.28;;;4.16;77.43
36630;BME280;36256;42.154;23.002;2024-02-16T03:22:49;97822.47;;;4.15;77.51
36630;BME280;36256;42.154;23.002;2024-02-16T03:25:15;97829.25;;;3.89;81.23
36630;BME280;36256;42.154;23.002;2024-02-16T03:27:42;97825.66;;;3.85;81.71
36630;BME280;36256;42.154;23.002;2024-02-16T03:30:09;97834.00;;;3.92;80.39
36630;BME280;36256;42.154;23.002;2024-02-16T03:32:36;97836.38;;;3.83;81.88
36630;BME280;36256;42.154;23.002;2024-02-16T03:35:04;97838.38;;;3.79;83.07
36630;BME280;36256;42.154;23.002;2024-02-16T03:37:31;97843.13;;;3.82;82.19
36630;BME280;36256;42.154;23.002;2024-02-16T03:39:57;97835.97;;;3.74;82.86
36630;BME280;36256;42.154;23.002;2024-02-16T03:42:24;97834.00;;;3.57;83.79
36630;BME280;36256;42.154;23.002;2024-02-16T03:44:50;97839.13;;;3.51;84.13
36630;BME280;36256;42.154;23.002;2024-02-16T03:47:17;97837.16;;;3.38;84.59
36630;BME280;36256;42.154;23.002;2024-02-16T03:49:43;97840.69;;;3.38;83.77
36630;BME280;36256;42.154;23.002;2024-02-16T03:52:10;97844.69;;;3.44;82.95
36630;BME280;36256;42.154;23.002;2024-02-16T03:54:37;97843.88;;;3.47;82.16
36630;BME280;36256;42.154;23.002;2024-02-16T03:57:03;97845.47;;;3.38;82.73
36630;BME280;36256;42.154;23.002;2024-02-16T03:59:32;97845.47;;;3.38;83.36
36630;BME280;36256;42.154;23.002;2024-02-16T04:01:59;97843.06;;;3.26;83.49
36630;BME280;36256;42.154;23.002;2024-02-16T04:04:25;97839.88;;;3.20;84.74
36630;BME280;36256;42.154;23.002;2024-02-16T04:06:53;97846.97;;;3.10;84.29
36630;BME280;36256;42.154;23.002;2024-02-16T04:09:19;97842.25;;;3.14;84.62
36630;BME280;36256;42.154;23.002;2024-02-16T04:11:46;97843.44;;;3.13;84.08
36630;BME280;36256;42.154;23.002;2024-02-16T04:14:13;97844.19;;;3.10;84.42
36630;BME280;36256;42.154;23.002;2024-02-16T04:16:42;97840.22;;;3.04;84.53
36630;BME280;36256;42.154;23.002;2024-02-16T04:19:08;97844.56;;;2.98;85.29
36630;BME280;36256;42.154;23.002;2024-02-16T04:21:35;97849.69;;;2.96;85.05
36630;BME280;36256;42.154;23.002;2024-02-16T04:24:02;97844.56;;;2.91;85.87
36630;BME280;36256;42.154;23.002;2024-02-16T04:26:29;97840.94;;;2.80;86.32
36630;BME280;36256;42.154;23.002;2024-02-16T04:28:56;97846.44;;;2.73;86.63
36630;BME280;36256;42.154;23.002;2024-02-16T04:31:22;97846.00;;;2.64;87.12
36630;BME280;36256;42.154;23.002;2024-02-16T04:33:49;97843.66;;;2.70;87.40
36630;BME280;36256;42.154;23.002;2024-02-16T04:36:16;97856.31;;;2.67;88.43
36630;BME280;36256;42.154;23.002;2024-02-16T04:38:43;97851.59;;;2.68;88.49
36630;BME280;36256;42.154;23.002;2024-02-16T04:41:09;97849.19;;;2.66;87.64
36630;BME280;36256;42.154;23.002;2024-02-16T04:43:36;97854.69;;;2.59;87.58
36630;BME280;36256;42.154;23.002;2024-02-16T04:46:02;97857.88;;;2.61;86.96
36630;BME280;36256;42.154;23.002;2024-02-16T04:48:29;97855.50;;;2.63;87.61
36630;BME280;36256;42.154;23.002;2024-02-16T04:50:56;97853.09;;;2.58;89.74
36630;BME280;36256;42.154;23.002;2024-02-16T04:53:22;97859.03;;;2.57;89.75
36630;BME280;36256;42.154;23.002;2024-02-16T04:55:49;97857.41;;;2.49;89.83
36630;BME280;36256;42.154;23.002;2024-02-16T04:58:15;97862.09;;;2.41;89.59
36630;BME280;36256;42.154;23.002;2024-02-16T05:00:42;97863.75;;;2.49;89.80
36630;BME280;36256;42.154;23.002;2024-02-16T05:03:09;97862.50;;;2.43;90.71
36630;BME280;36256;42.154;23.002;2024-02-16T05:05:36;97854.59;;;2.38;90.57
36630;BME280;36256;42.154;23.002;2024-02-16T05:08:02;97863.69;;;2.38;90.46
36630;BME280;36256;42.154;23.002;2024-02-16T05:10:29;97861.69;;;2.32;90.66
36630;BME280;36256;42.154;23.002;2024-02-16T05:12:56;97858.53;;;2.37;90.58
36630;BME280;36256;42.154;23.002;2024-02-16T05:15:24;97863.22;;;2.26;89.98
36630;BME280;36256;42.154;23.002;2024-02-16T05:17:51;97861.63;;;2.25;89.15
36630;BME280;36256;42.154;23.002;2024-02-16T05:20:18;97864.66;;;2.06;90.58
36630;BME280;36256;42.154;23.002;2024-02-16T05:22:46;97861.56;;;2.18;91.27
36630;BME280;36256;42.154;23.002;2024-02-16T05:25:13;97865.56;;;2.24;90.07
36630;BME280;36256;42.154;23.002;2024-02-16T05:27:40;97861.16;;;2.16;90.14
36630;BME280;36256;42.154;23.002;2024-02-16T05:30:08;97861.56;;;2.18;89.78
36630;BME280;36256;42.154;23.002;2024-02-16T05:32:36;97867.97;;;2.25;88.94
36630;BME280;36256;42.154;23.002;2024-02-16T05:35:06;97865.06;;;2.08;89.64
36630;BME280;36256;42.154;23.002;2024-02-16T05:37:42;97867.84;;;2.08;90.65
36630;BME280;36256;42.154;23.002;2024-02-16T05:40:14;97867.00;;;2.00;92.17
36630;BME280;36256;42.154;23.002;2024-02-16T05:42:57;97872.53;;;2.04;91.62
36630;BME280;36256;42.154;23.002;2024-02-16T05:45:24;97872.91;;;1.99;91.38
36630;BME280;36256;42.154;23.002;2024-02-16T05:47:52;97878.50;;;2.09;91.15
36630;BME280;36256;42.154;23.002;2024-02-16T05:50:20;97890.75;;;2.05;91.10
36630;BME280;36256;42.154;23.002;2024-02-16T05:52:47;97883.28;;;2.09;90.76
36630;BME280;36256;42.154;23.002;2024-02-16T05:55:13;97892.00;;;2.14;91.12
36630;BME280;36256;42.154;23.002;2024-02-16T05:57:40;97897.94;;;2.16;90.78
36630;BME280;36256;42.154;23.002;2024-02-16T06:00:08;97892.41;;;2.16;91.10
36630;BME280;36256;42.154;23.002;2024-02-16T06:02:39;97888.47;;;2.17;91.84
36630;BME280;36256;42.154;23.002;2024-02-16T06:05:07;97902.00;;;2.29;92.54
36630;BME280;36256;42.154;23.002;2024-02-16T06:07:34;97897.28;;;2.30;92.46
36630;BME280;36256;42.154;23.002;2024-02-16T06:10:05;97904.91;;;2.47;92.63
36630;BME280;36256;42.154;23.002;2024-02-16T06:12:35;97902.94;;;2.51;92.00
36630;BME280;36256;42.154;23.002;2024-02-16T06:15:02;97905.69;;;2.48;92.15
36630;BME280;36256;42.154;23.002;2024-02-16T06:17:29;97912.38;;;2.43;92.91
36630;BME280;36256;42.154;23.002;2024-02-16T06:19:56;97913.28;;;2.61;93.21
36630;BME280;36256;42.154;23.002;2024-02-16T06:22:23;97914.13;;;2.69;91.08
36630;BME280;36256;42.154;23.002;2024-02-16T06:24:49;97915.88;;;3.01;89.46
36630;BME280;36256;42.154;23.002;2024-02-16T06:27:16;97920.69;;;3.18;87.85
36630;BME280;36256;42.154;23.002;2024-02-16T06:29:43;97910.06;;;3.45;86.83
36630;BME280;36256;42.154;23.002;2024-02-16T06:32:09;97919.22;;;3.56;85.19
36630;BME280;36256;42.154;23.002;2024-02-16T06:34:39;97917.28;;;3.78;83.98
36630;BME280;36256;42.154;23.002;2024-02-16T06:37:05;97909.78;;;3.92;82.90
36630;BME280;36256;42.154;23.002;2024-02-16T06:39:32;97911.34;;;4.25;82.38
36630;BME280;36256;42.154;23.002;2024-02-16T06:41:58;97917.31;;;4.24;81.71
36630;BME280;36256;42.154;23.002;2024-02-16T06:44:26;97916.50;;;4.30;81.58
36630;BME280;36256;42.154;23.002;2024-02-16T06:46:53;97917.25;;;4.59;79.73
36630;BME280;36256;42.154;23.002;2024-02-16T06:49:20;97908.47;;;4.82;79.37
36630;BME280;36256;42.154;23.002;2024-02-16T06:51:46;97912.38;;;5.05;77.32
36630;BME280;36256;42.154;23.002;2024-02-16T06:54:13;97907.16;;;5.18;76.31
36630;BME280;36256;42.154;23.002;2024-02-16T06:56:41;97906.28;;;5.35;75.99
36630;BME280;36256;42.154;23.002;2024-02-16T06:59:07;97901.72;;;5.69;74.16
36630;BME280;36256;42.154;23.002;2024-02-16T07:01:35;97900.84;;;5.83;72.54
36630;BME280;36256;42.154;23.002;2024-02-16T07:04:02;97890.09;;;5.88;72.46
36630;BME280;36256;42.154;23.002;2024-02-16T07:06:29;97887.47;;;6.18;70.94
36630;BME280;36256;42.154;23.002;2024-02-16T07:08:56;97892.03;;;6.43;70.05
36630;BME280;36256;42.154;23.002;2024-02-16T07:11:23;97894.41;;;6.44;69.44
36630;BME280;36256;42.154;23.002;2024-02-16T07:13:49;97891.03;;;6.63;68.19
36630;BME280;36256;42.154;23.002;2024-02-16T07:16:16;97878.16;;;7.10;66.11
36630;BME280;36256;42.154;23.002;2024-02-16T07:18:44;97877.78;;;7.08;65.21
36630;BME280;36256;42.154;23.002;2024-02-16T07:21:11;97885.63;;;7.20;65.21
36630;BME280;36256;42.154;23.002;2024-02-16T07:23:37;97877.69;;;7.15;65.18
36630;BME280;36256;42.154;23.002;2024-02-16T07:26:04;97876.66;;;7.02;66.30
36630;BME280;36256;42.154;23.002;2024-02-16T07:28:33;97880.59;;;7.38;64.83
36630;BME280;36256;42.154;23.002;2024-02-16T07:30:59;97872.16;;;7.72;63.64
36630;BME280;36256;42.154;23.002;2024-02-16T07:33:26;97865.22;;;7.80;62.99
36630;BME280;36256;42.154;23.002;2024-02-16T07:35:55;97862.28;;;7.90;62.19
36630;BME280;36256;42.154;23.002;2024-02-16T07:38:22;97866.47;;;8.29;61.72
36630;BME280;36256;42.154;23.002;2024-02-16T07:40:49;97870.66;;;8.63;59.60
36630;BME280;36256;42.154;23.002;2024-02-16T07:43:17;97870.19;;;8.88;58.92
36630;BME280;36256;42.154;23.002;2024-02-16T07:45:44;97859.06;;;9.04;58.52
36630;BME280;36256;42.154;23.002;2024-02-16T07:48:12;97861.31;;;9.32;57.24
36630;BME280;36256;42.154;23.002;2024-02-16T07:50:38;97866.28;;;9.25;57.01
36630;BME280;36256;42.154;23.002;2024-02-16T07:53:05;97864.31;;;9.02;58.57
36630;BME280;36256;42.154;23.002;2024-02-16T07:55:32;97872.50;;;9.13;58.35
36630;BME280;36256;42.154;23.002;2024-02-16T07:57:58;97868.53;;;9.10;58.30
36630;BME280;36256;42.154;23.002;2024-02-16T08:00:25;97863.88;;;9.23;57.38
36630;BME280;36256;42.154;23.002;2024-02-16T08:02:52;97859.78;;;9.47;56.94
36630;BME280;36256;42.154;23.002;2024-02-16T08:05:18;97858.47;;;9.88;56.16
36630;BME280;36256;42.154;23.002;2024-02-16T08:07:46;97848.84;;;10.37;54.89
36630;BME280;36256;42.154;23.002;2024-02-16T08:10:13;97846.63;;;10.61;54.61
36630;BME280;36256;42.154;23.002;2024-02-16T08:12:40;97851.00;;;10.78;53.87
36630;BME280;36256;42.154;23.002;2024-02-16T08:15:07;97840.66;;;11.03;52.51
36630;BME280;36256;42.154;23.002;2024-02-16T08:17:34;97832.31;;;11.29;52.18
36630;BME280;36256;42.154;23.002;2024-02-16T08:20:01;97834.53;;;11.75;51.47
36630;BME280;36256;42.154;23.002;2024-02-16T08:22:28;97827.88;;;12.19;50.34
36630;BME280;36256;42.154;23.002;2024-02-16T08:24:55;97824.28;;;12.06;49.59
36630;BME280;36256;42.154;23.002;2024-02-16T08:27:21;97861.31;;;12.05;50.86
36630;BME280;36256;42.154;23.002;2024-02-16T08:29:48;97872.34;;;12.84;48.57
36630;BME280;36256;42.154;23.002;2024-02-16T08:32:15;97865.66;;;13.68;46.74
36630;BME280;36256;42.154;23.002;2024-02-16T08:34:43;97857.34;;;13.43;46.24
36630;BME280;36256;42.154;23.002;2024-02-16T08:37:10;97859.38;;;13.94;45.76
36630;BME280;36256;42.154;23.002;2024-02-16T08:39:37;97849.31;;;14.24;44.65
36630;BME280;36256;42.154;23.002;2024-02-16T08:42:04;97843.84;;;15.15;43.56
36630;BME280;36256;42.154;23.002;2024-02-16T08:44:31;97843.00;;;16.19;41.79
36630;BME280;36256;42.154;23.002;2024-02-16T08:46:58;97840.63;;;16.18;40.78
36630;BME280;36256;42.154;23.002;2024-02-16T08:49:24;97841.53;;;16.66;40.17
36630;BME280;36256;42.154;23.002;2024-02-16T08:51:51;97836.31;;;17.11;39.37
36630;BME280;36256;42.154;23.002;2024-02-16T08:54:17;97828.69;;;16.56;39.95
36630;BME280;36256;42.154;23.002;2024-02-16T08:56:45;97834.41;;;16.94;39.96
36630;BME280;36256;42.154;23.002;2024-02-16T08:59:12;97839.75;;;17.15;38.50
36630;BME280;36256;42.154;23.002;2024-02-16T09:01:39;97833.63;;;16.93;38.61
36630;BME280;36256;42.154;23.002;2024-02-16T09:04:06;97833.69;;;16.84;39.35
36630;BME280;36256;42.154;23.002;2024-02-16T09:06:32;97831.75;;;17.28;38.50
36630;BME280;36256;42.154;23.002;2024-02-16T09:09:01;97830.38;;;18.55;36.75
36630;BME280;36256;42.154;23.002;2024-02-16T09:11:28;97831.44;;;17.65;37.78
36630;BME280;36256;42.154;23.002;2024-02-16T09:13:55;97826.28;;;19.17;36.94
36630;BME280;36256;42.154;23.002;2024-02-16T09:16:21;97832.09;;;19.28;35.32
36630;BME280;36256;42.154;23.002;2024-02-16T09:18:50;97827.03;;;20.88;33.56
36630;BME280;36256;42.154;23.002;2024-02-16T09:21:17;97826.28;;;20.19;34.13
36630;BME280;36256;42.154;23.002;2024-02-16T09:23:45;97814.47;;;19.04;35.00
36630;BME280;36256;42.154;23.002;2024-02-16T09:26:11;97818.63;;;19.03;35.22
36630;BME280;36256;42.154;23.002;2024-02-16T09:28:41;97819.47;;;19.80;35.24
36630;BME280;36256;42.154;23.002;2024-02-16T09:31:08;97819.47;;;20.06;33.91
36630;BME280;36256;42.154;23.002;2024-02-16T09:33:34;97824.31;;;20.68;33.46
36630;BME280;36256;42.154;23.002;2024-02-16T09:36:04;97817.47;;;19.86;34.18
36630;BME280;36256;42.154;23.002;2024-02-16T09:38:31;97823.13;;;19.35;35.30
36630;BME280;36256;42.154;23.002;2024-02-16T09:40:58;97823.22;;;19.40;35.10
36630;BME280;36256;42.154;23.002;2024-02-16T09:43:26;97823.72;;;18.29;36.40
36630;BME280;36256;42.154;23.002;2024-02-16T09:45:57;97825.34;;;17.04;38.24
36630;BME280;36256;42.154;23.002;2024-02-16T09:48:26;97819.53;;;16.28;40.92
36630;BME280;36256;42.154;23.002;2024-02-16T09:50:54;97822.16;;;15.30;42.45
36630;BME280;36256;42.154;23.002;2024-02-16T09:53:23;97824.66;;;14.73;43.01
36630;BME280;36256;42.154;23.002;2024-02-16T09:55:50;97815.06;;;14.53;44.19
36630;BME280;36256;42.154;23.002;2024-02-16T09:58:17;97814.22;;;14.34;43.84
36630;BME280;36256;42.154;23.002;2024-02-16T10:00:51;97814.88;;;13.98;43.60
36630;BME280;36256;42.154;23.002;2024-02-16T10:05:51;97815.06;;;13.73;46.50
36630;BME280;36256;42.154;23.002;2024-02-16T10:08:20;97817.88;;;13.64;45.12
36630;BME280;36256;42.154;23.002;2024-02-16T10:10:46;97799.03;;;13.61;45.00
36630;BME280;36256;42.154;23.002;2024-02-16T10:13:15;97791.50;;;13.89;46.12
36630;BME280;36256;42.154;23.002;2024-02-16T10:15:41;97789.09;;;13.78;44.54
36630;BME280;36256;42.154;23.002;2024-02-16T10:18:08;97791.91;;;13.78;45.77
36630;BME280;36256;42.154;23.002;2024-02-16T10:20:35;97778.09;;;13.71;44.16
36630;BME280;36256;42.154;23.002;2024-02-16T10:23:06;97779.63;;;13.63;45.55
36630;BME280;36256;42.154;23.002;2024-02-16T10:25:33;97784.75;;;13.86;44.86
36630;BME280;36256;42.154;23.002;2024-02-16T10:28:04;97777.66;;;13.82;45.16
36630;BME280;36256;42.154;23.002;2024-02-16T10:30:34;97773.47;;;13.86;46.07
36630;BME280;36256;42.154;23.002;2024-02-16T10:33:01;97771.13;;;13.94;46.22
36630;BME280;36256;42.154;23.002;2024-02-16T10:35:28;97765.09;;;13.74;44.74
36630;BME280;36256;42.154;23.002;2024-02-16T10:37:56;97765.91;;;13.74;44.72
36630;BME280;36256;42.154;23.002;2024-02-16T10:40:24;97764.03;;;13.80;45.62
36630;BME280;36256;42.154;23.002;2024-02-16T10:42:52;97758.66;;;13.73;43.90
36630;BME280;36256;42.154;23.002;2024-02-16T10:45:19;97762.22;;;13.65;45.11
36630;BME280;36256;42.154;23.002;2024-02-16T10:47:47;97754.31;;;13.81;45.06
36630;BME280;36256;42.154;23.002;2024-02-16T10:50:13;97755.25;;;13.78;44.93
36630;BME280;36256;42.154;23.002;2024-02-16T10:52:41;97752.75;;;13.80;45.09
36630;BME280;36256;42.154;23.002;2024-02-16T10:55:09;97746.94;;;13.75;44.68
36630;BME280;36256;42.154;23.002;2024-02-16T10:57:36;97748.69;;;13.90;46.04
36630;BME280;36256;42.154;23.002;2024-02-16T11:00:07;97742.09;;;13.84;44.44
36630;BME280;36256;42.154;23.002;2024-02-16T11:02:50;97729.91;;;13.87;44.98
36630;BME280;36256;42.154;23.002;2024-02-16T11:05:18;97737.91;;;13.89;44.61
36630;BME280;36256;42.154;23.002;2024-02-16T11:07:44;97731.19;;;13.95;45.78
36630;BME280;36256;42.154;23.002;2024-02-16T11:10:11;97734.66;;;14.17;44.96
36630;BME280;36256;42.154;23.002;2024-02-16T11:12:38;97722.94;;;14.19;43.91
36630;BME280;36256;42.154;23.002;2024-02-16T11:15:13;97714.34;;;14.32;44.45
36630;BME280;36256;42.154;23.002;2024-02-16T11:17:39;97709.25;;;14.17;44.65
36630;BME280;36256;42.154;23.002;2024-02-16T11:20:07;97700.47;;;14.15;44.37
36630;BME280;36256;42.154;23.002;2024-02-16T11:22:36;97706.72;;;13.92;44.43
36630;BME280;36256;42.154;23.002;2024-02-16T11:25:04;97707.66;;;13.98;44.74
36630;BME280;36256;42.154;23.002;2024-02-16T11:27:31;97703.94;;;14.10;43.78
36630;BME280;36256;42.154;23.002;2024-02-16T11:29:58;97701.47;;;14.31;44.44
36630;BME280;36256;42.154;23.002;2024-02-16T11:32:26;97694.84;;;14.15;43.58
36630;BME280;36256;42.154;23.002;2024-02-16T11:34:53;97704.38;;;14.09;44.03
36630;BME280;36256;42.154;23.002;2024-02-16T11:37:20;97700.50;;;14.25;44.89
36630;BME280;36256;42.154;23.002;2024-02-16T11:39:46;97685.75;;;14.21;44.04
36630;BME280;36256;42.154;23.002;2024-02-16T11:42:18;97685.13;;;14.16;44.65
36630;BME280;36256;42.154;23.002;2024-02-16T11:44:52;97685.13;;;14.16;45.27
36630;BME280;36256;42.154;23.002;2024-02-16T11:47:20;97686.09;;;14.50;46.51
36630;BME280;36256;42.154;23.002;2024-02-16T11:50:06;97680.75;;;14.88;44.39
36630;BME280;36256;42.154;23.002;2024-02-16T11:52:38;97678.47;;;15.10;43.75
36630;BME280;36256;42.154;23.002;2024-02-16T11:55:07;97683.19;;;15.13;44.92
36630;BME280;36256;42.154;23.002;2024-02-16T11:57:35;97680.81;;;15.21;45.00
36630;BME280;36256;42.154;23.002;2024-02-16T12:00:02;97672.19;;;15.15;45.23
36630;BME280;36256;42.154;23.002;2024-02-16T12:02:35;97667.94;;;15.20;43.49
36630;BME280;36256;42.154;23.002;2024-02-16T12:05:03;97666.16;;;15.31;45.03
36630;BME280;36256;42.154;23.002;2024-02-16T12:07:31;97658.75;;;14.92;42.63
36630;BME280;36256;42.154;23.002;2024-02-16T12:10:00;97657.94;;;15.01;43.79
36630;BME280;36256;42.154;23.002;2024-02-16T12:12:27;97656.81;;;15.16;43.74
36630;BME280;36256;42.154;23.002;2024-02-16T12:14:54;97652.69;;;15.26;43.58
36630;BME280;36256;42.154;23.002;2024-02-16T12:17:21;97650.19;;;15.19;45.81
36630;BME280;36256;42.154;23.002;2024-02-16T12:19:49;97649.56;;;15.24;46.23
36630;BME280;36256;42.154;23.002;2024-02-16T12:22:22;97641.72;;;15.19;45.31
36630;BME280;36256;42.154;23.002;2024-02-16T12:24:49;97637.97;;;15.13;45.17
36630;BME280;36256;42.154;23.002;2024-02-16T12:27:17;97637.34;;;15.09;46.59
36630;BME280;36256;42.154;23.002;2024-02-16T12:29:44;97624.41;;;15.26;43.70
36630;BME280;36256;42.154;23.002;2024-02-16T12:32:10;97628.50;;;15.25;45.52
36630;BME280;36256;42.154;23.002;2024-02-16T12:34:37;97621.91;;;15.28;45.46
36630;BME280;36256;42.154;23.002;2024-02-16T12:37:05;97619.78;;;15.38;44.61
36630;BME280;36256;42.154;23.002;2024-02-16T12:39:33;97616.44;;;15.57;44.48
36630;BME280;36256;42.154;23.002;2024-02-16T12:42:00;97625.47;;;15.70;45.00
36630;BME280;36256;42.154;23.002;2024-02-16T12:44:27;97623.66;;;15.82;43.63
36630;BME280;36256;42.154;23.002;2024-02-16T12:46:54;97622.94;;;15.73;42.30
36630;BME280;36256;42.154;23.002;2024-02-16T12:49:20;97623.75;;;15.73;45.48
36630;BME280;36256;42.154;23.002;2024-02-16T12:51:49;97607.47;;;15.59;43.47
36630;BME280;36256;42.154;23.002;2024-02-16T12:54:16;97607.22;;;15.48;43.59
36630;BME280;36256;42.154;23.002;2024-02-16T12:56:45;97604.84;;;15.46;43.59
36630;BME280;36256;42.154;23.002;2024-02-16T12:59:12;97601.41;;;15.42;43.48
36630;BME280;36256;42.154;23.002;2024-02-16T13:01:38;97607.38;;;15.44;43.42